createdAt,value
2018-08-16T00:04:58.192Z,89
2018-08-16T00:10:33.380Z,89
2018-08-16T00:15:57.456Z,89
2018-08-16T00:21:32.605Z,89
2018-08-16T00:26:56.877Z,89
2018-08-16T00:32:25.598Z,90
2018-08-16T00:37:56.013Z,90
2018-08-16T00:43:29.882Z,89
2018-08-16T00:48:59.017Z,90
2018-08-16T00:54:28.206Z,90
2018-08-16T00:59:53.610Z,90
2018-08-16T01:05:22.456Z,90
2018-08-16T01:10:52.543Z,90
2018-08-16T01:16:23.043Z,90
2018-08-16T01:21:51.794Z,90
2018-08-16T01:27:20.896Z,90
2018-08-16T01:32:50.064Z,90
2018-08-16T01:38:20.532Z,90
2018-08-16T01:43:49.452Z,90
2018-08-16T01:49:24.451Z,90
2018-08-16T01:54:53.638Z,90
2018-08-16T02:05:52.246Z,90
2018-08-16T02:11:16.148Z,90
2018-08-16T02:16:45.331Z,90
2018-08-16T02:22:20.034Z,90
2018-08-16T02:27:44.898Z,91
2018-08-16T02:33:13.881Z,91
2018-08-16T02:38:49.397Z,91
2018-08-16T02:44:14.351Z,91
2018-08-16T02:49:44.972Z,91
2018-08-16T02:55:18.832Z,91
2018-08-16T03:00:42.754Z,91
2018-08-16T03:06:18.193Z,91
2018-08-16T03:11:42.364Z,91
2018-08-16T03:17:11.229Z,91
2018-08-16T03:22:41.411Z,91
2018-08-16T03:28:10.576Z,92
2018-08-16T03:33:39.726Z,92
2018-08-16T03:39:14.909Z,92
2018-08-16T03:44:39.329Z,92
2018-08-16T03:50:08.412Z,92
2018-08-16T03:55:42.713Z,92
2018-08-16T04:01:11.846Z,92
2018-08-16T04:06:35.740Z,92
2018-08-16T04:12:06.161Z,92
2018-08-16T04:17:36.316Z,92
2018-08-16T04:23:06.611Z,92
2018-08-16T04:28:35.509Z,92
2018-08-16T04:34:04.616Z,92
2018-08-16T04:39:33.777Z,92
2018-08-16T04:45:04.022Z,92
2018-08-16T04:50:34.314Z,92
2018-08-16T04:56:09.320Z,92
2018-08-16T05:01:35.138Z,92
2018-08-16T05:07:04.682Z,92
2018-08-16T05:12:33.961Z,92
2018-08-16T05:18:04.083Z,92
2018-08-16T05:23:33.386Z,92
2018-08-16T05:29:02.823Z,92
2018-08-16T05:34:32.763Z,92
2018-08-16T05:40:02.278Z,92
2018-08-16T05:45:31.473Z,93
2018-08-16T05:51:01.417Z,93
2018-08-16T05:56:30.639Z,93
2018-08-16T06:02:00.233Z,92
2018-08-16T06:07:34.191Z,92
2018-08-16T06:12:59.454Z,92
2018-08-16T06:18:28.941Z,92
2018-08-16T06:23:58.934Z,92
2018-08-16T06:29:34.148Z,92
2018-08-16T06:34:59.509Z,92
2018-08-16T06:40:33.757Z,92
2018-08-16T06:45:58.020Z,92
2018-08-16T06:51:28.580Z,92
2018-08-16T06:57:03.036Z,92
2018-08-16T07:02:33.058Z,92
2018-08-16T07:07:57.258Z,92
2018-08-16T07:13:26.934Z,92
2018-08-16T07:18:55.966Z,92
2018-08-16T07:24:25.286Z,92
2018-08-16T07:29:55.754Z,91
2018-08-16T07:35:31.010Z,91
2018-08-16T07:40:55.384Z,91
2018-08-16T07:46:24.810Z,91
2018-08-16T07:51:54.481Z,91
2018-08-16T07:57:29.977Z,91
2018-08-16T08:02:54.960Z,91
2018-08-16T08:08:24.677Z,90
2018-08-16T08:13:59.167Z,90
2018-08-16T08:19:24.370Z,90
2018-08-16T08:24:59.811Z,90
2018-08-16T08:30:25.263Z,90
2018-08-16T08:35:54.702Z,89
2018-08-16T08:41:25.333Z,88
2018-08-16T08:46:54.740Z,88
2018-08-16T08:52:25.346Z,87
2018-08-16T08:57:54.992Z,87
2018-08-16T09:03:24.597Z,87
2018-08-16T09:08:55.270Z,87
2018-08-16T09:14:26.167Z,87
2018-08-16T09:20:00.655Z,86
2018-08-16T09:25:26.436Z,85
2018-08-16T09:30:56.028Z,85
2018-08-16T09:36:25.837Z,84
2018-08-16T09:41:55.293Z,84
2018-08-16T09:47:24.997Z,84
2018-08-16T09:52:55.905Z,84
2018-08-16T09:58:30.346Z,84
2018-08-16T10:03:56.336Z,83
2018-08-16T10:09:26.740Z,83
2018-08-16T10:15:01.793Z,83
2018-08-16T10:20:27.496Z,82
2018-08-16T10:25:57.748Z,82
2018-08-16T10:31:27.486Z,82
2018-08-16T10:36:57.440Z,82
2018-08-16T10:42:27.058Z,81
2018-08-16T10:47:57.846Z,81
2018-08-16T10:53:27.191Z,80
2018-08-16T10:58:56.810Z,80
2018-08-16T11:04:32.532Z,80
2018-08-16T11:09:57.496Z,79
2018-08-16T11:15:32.903Z,79
2018-08-16T11:20:57.754Z,79
2018-08-16T11:26:33.431Z,79
2018-08-16T11:32:01.365Z,79
2018-08-16T11:37:28.653Z,79
2018-08-16T11:43:04.793Z,79
2018-08-16T11:48:29.248Z,79
2018-08-16T11:53:59.837Z,78
2018-08-16T11:59:30.666Z,78
2018-08-16T12:05:01.122Z,78
2018-08-16T12:10:33.017Z,78
2018-08-16T12:16:01.567Z,78
2018-08-16T12:21:32.207Z,78
2018-08-16T12:27:02.029Z,78
2018-08-16T12:32:37.424Z,78
2018-08-16T12:38:02.342Z,78
2018-08-16T12:43:33.063Z,78
2018-08-16T12:49:02.936Z,78
2018-08-16T12:54:32.603Z,78
2018-08-16T13:00:02.636Z,78
2018-08-16T13:05:32.801Z,77
2018-08-16T13:11:08.625Z,77
2018-08-16T13:16:34.284Z,77
2018-08-16T13:22:05.349Z,77
2018-08-16T13:33:05.615Z,77
2018-08-16T13:33:05.766Z,77
2018-08-16T13:38:35.190Z,77
2018-08-16T13:44:05.072Z,77
2018-08-16T13:49:34.332Z,77
2018-08-16T13:55:05.458Z,77
2018-08-16T14:00:35.921Z,77
2018-08-16T14:06:06.467Z,76
2018-08-16T14:11:37.350Z,76
2018-08-16T14:17:06.891Z,76
2018-08-16T14:22:37.708Z,76
2018-08-16T14:28:08.615Z,76
2018-08-16T14:33:39.312Z,76
2018-08-16T14:39:09.405Z,76
2018-08-16T14:44:39.685Z,76
2018-08-16T14:50:14.346Z,76
2018-08-16T14:55:38.916Z,76
2018-08-16T15:01:09.175Z,76
2018-08-16T15:06:39.581Z,76
2018-08-16T15:12:09.268Z,76
2018-08-16T15:17:38.975Z,76
2018-08-16T15:23:08.929Z,76
2018-08-16T15:28:39.397Z,76
2018-08-16T15:34:09.172Z,76
2018-08-16T15:39:44.744Z,76
2018-08-16T15:45:09.262Z,76
2018-08-16T15:50:39.309Z,76
2018-08-16T15:56:09.659Z,76
2018-08-16T16:01:43.256Z,76
2018-08-16T16:07:14.615Z,75
2018-08-16T16:12:39.185Z,75
2018-08-16T16:18:08.624Z,75
2018-08-16T16:23:38.182Z,75
2018-08-16T16:29:07.825Z,75
2018-08-16T16:34:37.479Z,75
2018-08-16T16:40:12.218Z,75
2018-08-16T16:45:37.822Z,75
2018-08-16T16:51:08.515Z,75
2018-08-16T16:56:39.170Z,75
2018-08-16T17:02:09.017Z,75
2018-08-16T17:07:54.120Z,75
2018-08-16T17:13:14.358Z,75
2018-08-16T17:18:38.975Z,75
2018-08-16T17:24:13.410Z,75
2018-08-16T17:29:38.670Z,75
2018-08-16T17:35:07.681Z,75
2018-08-16T17:40:37.448Z,75
2018-08-16T17:46:06.783Z,75
2018-08-16T17:51:36.666Z,75
2018-08-16T17:57:07.326Z,75
2018-08-16T18:02:42.820Z,75
2018-08-16T18:08:13.401Z,75
2018-08-16T18:13:37.720Z,76
2018-08-16T18:19:13.424Z,76
2018-08-16T18:24:39.201Z,76
2018-08-16T18:30:08.542Z,76
2018-08-16T18:35:39.183Z,76
2018-08-16T18:41:27.133Z,76
2018-08-16T18:46:44.260Z,76
2018-08-16T18:52:13.518Z,76
2018-08-16T18:57:37.965Z,76
2018-08-16T19:03:07.458Z,76
2018-08-16T19:08:43.940Z,76
2018-08-16T19:14:07.508Z,77
2018-08-16T19:19:36.946Z,77
2018-08-16T19:25:07.633Z,77
2018-08-16T19:30:43.015Z,77
2018-08-16T19:36:07.573Z,77
2018-08-16T19:41:38.075Z,78
2018-08-16T19:47:12.326Z,78
2018-08-16T19:52:36.693Z,78
2018-08-16T19:58:06.464Z,78
2018-08-16T20:03:41.987Z,78
2018-08-16T20:09:07.070Z,79
2018-08-16T20:14:41.454Z,79
2018-08-16T20:20:05.854Z,79
2018-08-16T20:25:35.323Z,79
2018-08-16T20:31:05.719Z,80
2018-08-16T20:36:36.103Z,80
2018-08-16T20:42:06.548Z,80
2018-08-16T20:47:36.880Z,80
2018-08-16T20:53:11.316Z,80
2018-08-16T20:58:36.701Z,81
2018-08-16T21:04:07.123Z,81
2018-08-16T21:09:41.728Z,81
2018-08-16T21:15:05.944Z,81
2018-08-16T21:20:40.240Z,81
2018-08-16T21:26:04.553Z,81
2018-08-16T21:31:38.818Z,82
2018-08-16T21:37:04.591Z,82
2018-08-16T21:42:34.656Z,82
2018-08-16T21:48:05.180Z,82
2018-08-16T21:53:35.383Z,82
2018-08-16T21:59:05.112Z,82
2018-08-16T22:04:34.092Z,83
2018-08-16T22:10:08.898Z,83
2018-08-16T22:15:32.722Z,83
2018-08-16T22:21:03.162Z,83
2018-08-16T22:26:38.243Z,83
2018-08-16T22:32:09.056Z,83
2018-08-16T22:37:37.825Z,83
2018-08-16T22:43:02.324Z,83
2018-08-16T22:48:31.377Z,83
2018-08-16T22:59:30.995Z,84
2018-08-16T23:05:06.640Z,84
2018-08-16T23:10:30.435Z,84
2018-08-16T23:16:05.206Z,84
2018-08-16T23:21:29.899Z,84
2018-08-16T23:26:59.102Z,84
2018-08-16T23:32:34.928Z,84
2018-08-16T23:37:58.792Z,84
2018-08-16T23:43:28.804Z,84
2018-08-16T23:48:58.065Z,85
2018-08-16T23:54:33.927Z,85
2018-08-16T23:59:57.761Z,85
